Observation data for Post on 07/03/2020      Previous  Date  Next       Current Mesonet Observations  Soil Data  Daily Summary Page  Observations in Plain Language
KPT1 030500Z 10004KT 28/17 A3003 RMK A01 T02790170  RH  054%=      5-min Rain = 0
KPT1 030505Z 11004KT 28/17 A3003 RMK A01 T02770170  RH  055%=      5-min Rain = 0
KPT1 030510Z 12003KT 28/17 A3003 RMK A01 T02760170  RH  055%=      5-min Rain = 0
KPT1 030515Z 14003KT 28/17 A3003 RMK A01 T02750170  RH  056%=      5-min Rain = 0
KPT1 030520Z 16003KT 27/17 A3003 RMK A01 T02720172  RH  057%=      5-min Rain = 0
KPT1 030525Z 17003KT 27/17 A3003 RMK A01 T02690172  RH  058%=      5-min Rain = 0
KPT1 030530Z 17003KT 27/17 A3003 RMK A01 T02680172  RH  059%=      5-min Rain = 0
KPT1 030535Z 17003KT 27/17 A3003 RMK A01 T02670172  RH  059%=      5-min Rain = 0
KPT1 030540Z 15002KT 27/17 A3003 RMK A01 T02680172  RH  058%=      5-min Rain = 0
KPT1 030545Z 13003KT 27/17 A3003 RMK A01 T02700171  RH  057%=      5-min Rain = 0
KPT1 030550Z 12003KT 27/17 A3003 RMK A01 T02700171  RH  057%=      5-min Rain = 0
KPT1 030555Z 11003KT 27/17 A3004 RMK A01 T02680171  RH  058%=      5-min Rain = 0
KPT1 030600Z 11003KT 27/17 A3003 RMK A01 T02670171  RH  059%=      5-min Rain = 0
KPT1 030605Z 12002KT 27/17 A3003 RMK A01 T02670171  RH  058%=      5-min Rain = 0
KPT1 030610Z 15002KT 27/17 A3003 RMK A01 T02650171  RH  059%=      5-min Rain = 0
KPT1 030615Z 17002KT 26/17 A3003 RMK A01 T02640171  RH  060%=      5-min Rain = 0
KPT1 030620Z 20002KT 27/17 A3003 RMK A01 T02650171  RH  059%=      5-min Rain = 0
KPT1 030625Z 20002KT 27/17 A3003 RMK A01 T02670169  RH  058%=      5-min Rain = 0
KPT1 030630Z 17002KT 27/17 A3003 RMK A01 T02680167  RH  057%=      5-min Rain = 0
KPT1 030635Z 17002KT 27/17 A3003 RMK A01 T02670166  RH  056%=      5-min Rain = 0
KPT1 030640Z 19002KT 27/17 A3003 RMK A01 T02660166  RH  057%=      5-min Rain = 0
KPT1 030645Z 20002KT 27/17 A3002 RMK A01 T02670165  RH  056%=      5-min Rain = 0
KPT1 030650Z 24001KT 27/17 A3002 RMK A01 T02660166  RH  057%=      5-min Rain = 0
KPT1 030655Z 25001KT 26/17 A3002 RMK A01 T02640168  RH  058%=      5-min Rain = 0
KPT1 030700Z 25002KT 26/17 A3002 RMK A01 T02620171  RH  060%=      5-min Rain = 0
KPT1 030705Z 26002KT 26/17 A3002 RMK A01 T02610171  RH  061%=      5-min Rain = 0
KPT1 030710Z 26003KT 26/17 A3001 RMK A01 T02580171  RH  062%=      5-min Rain = 0
KPT1 030715Z 26004KT 26/17 A3001 RMK A01 T02550170  RH  062%=      5-min Rain = 0
KPT1 030720Z 25005KT 25/17 A3001 RMK A01 T02530169  RH  062%=      5-min Rain = 0
KPT1 030725Z 22004KT 25/16 A30 RMK A01 T02540161  RH  059%=      5-min Rain = 0
KPT1 030730Z 21004KT 26/15 A30 RMK A01 T02580152  RH  055%=      5-min Rain = 0
KPT1 030735Z 21004KT 26/15 A30 RMK A01 T02580149  RH  053%=      5-min Rain = 0
KPT1 030740Z 19003KT 26/14 A30 RMK A01 T02580143  RH  051%=      5-min Rain = 0
KPT1 030745Z 16003KT 26/14 A30 RMK A01 T02590140  RH  050%=      5-min Rain = 0
KPT1 030750Z 13002KT 25/16 A30 RMK A01 T02520156  RH  058%=      5-min Rain = 0
KPT1 030755Z 18003KT 25/15 A30 RMK A01 T02490152  RH  057%=      5-min Rain = 0
KPT1 030800Z 20005KT 25/14 A2999 RMK A01 T02490143  RH  054%=      5-min Rain = 0
KPT1 030805Z 21005KT 25/14 A2999 RMK A01 T02510140  RH  052%=      5-min Rain = 0
KPT1 030810Z 22005KT 26/14 A30 RMK A01 T02550138  RH  050%=      5-min Rain = 0
KPT1 030815Z 23005KT 26/14 A30 RMK A01 T02570137  RH  049%=      5-min Rain = 0
KPT1 030820Z 23005KT 26/14 A30 RMK A01 T02590136  RH  049%=      5-min Rain = 0
KPT1 030825Z 23004KT 26/14 A30 RMK A01 T02580137  RH  049%=      5-min Rain = 0
KPT1 030830Z 23005KT 26/14 A30 RMK A01 T02560138  RH  050%=      5-min Rain = 0
KPT1 030835Z 23005KT 26/14 A30 RMK A01 T02560138  RH  050%=      5-min Rain = 0
KPT1 030840Z 22003KT 26/14 A30 RMK A01 T02550138  RH  051%=      5-min Rain = 0
KPT1 030845Z 21003KT 25/14 A3001 RMK A01 T02540138  RH  051%=      5-min Rain = 0
KPT1 030850Z 21003KT 25/14 A3001 RMK A01 T02530138  RH  051%=      5-min Rain = 0
KPT1 030855Z 22004KT 25/14 A30 RMK A01 T02500139  RH  052%=      5-min Rain = 0
KPT1 030900Z 21004KT 25/14 A30 RMK A01 T02480140  RH  053%=      5-min Rain = 0
KPT1 030905Z 20004KT 25/14 A3001 RMK A01 T02470140  RH  053%=      5-min Rain = 0
KPT1 030910Z 19003KT 25/14 A3001 RMK A01 T02470140  RH  054%=      5-min Rain = 0
KPT1 030915Z 18002KT 24/14 A3001 RMK A01 T02440141  RH  055%=      5-min Rain = 0
KPT1 030920Z 18002KT 24/14 A3001 RMK A01 T02400143  RH  057%=      5-min Rain = 0
KPT1 030925Z 21002KT 24/14 A3001 RMK A01 T02410141  RH  056%=      5-min Rain = 0
KPT1 030930Z 22001KT 24/14 A3001 RMK A01 T02430140  RH  055%=      5-min Rain = 0
KPT1 030935Z 07000KT 24/14 A3001 RMK A01 T02410142  RH  056%=      5-min Rain = 0
KPT1 030940Z 04003KT 24/15 A3002 RMK A01 T02350148  RH  061%=      5-min Rain = 0
KPT1 030945Z 05004KT 23/15 A3002 RMK A01 T02310151  RH  063%=      5-min Rain = 0
KPT1 030950Z 02004KT 23/15 A3002 RMK A01 T02290153  RH  065%=      5-min Rain = 0
KPT1 030955Z 36002KT 23/15 A3002 RMK A01 T02270153  RH  066%=      5-min Rain = 0
KPT1 031000Z 33002KT 23/15 A3002 RMK A01 T02260154  RH  067%=      5-min Rain = 0
KPT1 031005Z 33001KT 23/16 A3002 RMK A01 T02260156  RH  068%=      5-min Rain = 0
KPT1 031010Z 32000KT 23/16 A3002 RMK A01 T02270155  RH  067%=      5-min Rain = 0
KPT1 031015Z 00000KT 23/16 A3002 RMK A01 T02290155  RH  066%=      5-min Rain = 0
KPT1 031020Z 00000KT 23/15 A3003 RMK A01 T02310154  RH  065%=      5-min Rain = 0
KPT1 031025Z 00000KT 23/16 A3003 RMK A01 T02300155  RH  065%=      5-min Rain = 0
KPT1 031030Z 25000KT 23/15 A3002 RMK A01 T02310154  RH  065%=      5-min Rain = 0
KPT1 031035Z 25002KT 23/15 A3003 RMK A01 T02300153  RH  065%=      5-min Rain = 0
KPT1 031040Z 24002KT 23/15 A3003 RMK A01 T02290151  RH  064%=      5-min Rain = 0
KPT1 031045Z 25002KT 23/15 A3003 RMK A01 T02300151  RH  064%=      5-min Rain = 0
KPT1 031050Z 25003KT 23/15 A3003 RMK A01 T02280152  RH  065%=      5-min Rain = 0
KPT1 031055Z 25003KT 23/15 A3003 RMK A01 T02280152  RH  065%=      5-min Rain = 0
KPT1 031100Z 23002KT 23/15 A3003 RMK A01 T02250152  RH  066%=      5-min Rain = 0
KPT1 031105Z 21002KT 23/15 A3004 RMK A01 T02260151  RH  066%=      5-min Rain = 0
KPT1 031110Z 21002KT 23/15 A3004 RMK A01 T02270150  RH  065%=      5-min Rain = 0
KPT1 031115Z 20002KT 23/15 A3004 RMK A01 T02280150  RH  064%=      5-min Rain = 0
KPT1 031120Z 19002KT 23/15 A3004 RMK A01 T02290149  RH  063%=      5-min Rain = 0
KPT1 031125Z 18002KT 23/15 A3004 RMK A01 T02310148  RH  062%=      5-min Rain = 0
KPT1 031130Z 13002KT 22/15 A3004 RMK A01 T02230152  RH  067%=      5-min Rain = 0
KPT1 031135Z 15002KT 22/16 A3004 RMK A01 T02190155  RH  070%=      5-min Rain = 0
KPT1 031140Z 20002KT 22/15 A3004 RMK A01 T02220152  RH  068%=      5-min Rain = 0
KPT1 031145Z 20002KT 23/15 A3004 RMK A01 T02260150  RH  065%=      5-min Rain = 0
KPT1 031150Z 19002KT 23/15 A3004 RMK A01 T02280147  RH  063%=      5-min Rain = 0
KPT1 031155Z 18002KT 23/14 A3005 RMK A01 T02310144  RH  060%=      5-min Rain = 0
KPT1 031200Z 18003KT 23/14 A3005 RMK A01 T02340142  RH  059%=      5-min Rain = 0
KPT1 031205Z 20003KT 24/14 A3005 RMK A01 T02350141  RH  058%=      5-min Rain = 0
KPT1 031210Z 21003KT 24/14 A3005 RMK A01 T02350140  RH  058%=      5-min Rain = 0
KPT1 031215Z 21002KT 24/14 A3005 RMK A01 T02360140  RH  057%=      5-min Rain = 0
KPT1 031220Z 19003KT 24/14 A3005 RMK A01 T02370142  RH  058%=      5-min Rain = 0
KPT1 031225Z 19003KT 24/14 A3005 RMK A01 T02380143  RH  058%=      5-min Rain = 0
KPT1 031230Z 19003KT 24/15 A3006 RMK A01 T02400145  RH  058%=      5-min Rain = 0
KPT1 031235Z 17003KT 24/15 A3006 RMK A01 T02410149  RH  059%=      5-min Rain = 0
KPT1 031240Z 17003KT 24/15 A3006 RMK A01 T02430152  RH  059%=      5-min Rain = 0
KPT1 031245Z 18002KT 25/16 A3006 RMK A01 T02460156  RH  060%=      5-min Rain = 0
KPT1 031250Z 20002KT 25/16 A3006 RMK A01 T02470155  RH  059%=      5-min Rain = 0
KPT1 031255Z 19003KT 25/15 A3006 RMK A01 T02500153  RH  057%=      5-min Rain = 0
KPT1 031300Z 19005KT 25/15 A3006 RMK A01 T02530151  RH  056%=      5-min Rain = 0
KPT1 031305Z 18005KT 26/15 A3006 RMK A01 T02550148  RH  054%=      5-min Rain = 0
KPT1 031310Z 18005KT 26/15 A3006 RMK A01 T02580148  RH  053%=      5-min Rain = 0
KPT1 031315Z 16004KT 26/15 A3007 RMK A01 T02600153  RH  054%=      5-min Rain = 0
KPT1 031320Z 16004KT 26/16 A3007 RMK A01 T02620156  RH  054%=      5-min Rain = 0
KPT1 031325Z 16004KT 26/16 A3007 RMK A01 T02630156  RH  054%=      5-min Rain = 0
KPT1 031330Z 17004KT 27/16 A3007 RMK A01 T02670156  RH  053%=      5-min Rain = 0
KPT1 031335Z 19004KT 27/16 A3007 RMK A01 T02690155  RH  052%=      5-min Rain = 0
KPT1 031340Z 19005G10KT 27/16 A3007 RMK A01 T02710156  RH  052%=      5-min Rain = 0
KPT1 031345Z 17006KT 28/16 A3007 RMK A01 T02750157  RH  051%=      5-min Rain = 0
KPT1 031350Z 17007G12KT 28/16 A3007 RMK A01 T02760157  RH  051%=      5-min Rain = 0
KPT1 031355Z 18009KT 27/16 A3007 RMK A01 T02740157  RH  051%=      5-min Rain = 0
KPT1 031400Z 19008KT 28/16 A3007 RMK A01 T02750161  RH  052%=      5-min Rain = 0
KPT1 031405Z 18009KT 28/16 A3007 RMK A01 T02760163  RH  052%=      5-min Rain = 0
KPT1 031410Z 19009KT 28/16 A3007 RMK A01 T02770164  RH  053%=      5-min Rain = 0
KPT1 031415Z 18010G15KT 28/17 A3007 RMK A01 T02770165  RH  053%=      5-min Rain = 0
KPT1 031420Z 18011G17KT 28/17 A3007 RMK A01 T02760166  RH  054%=      5-min Rain = 0
KPT1 031425Z 18011G16KT 28/17 A3007 RMK A01 T02750166  RH  054%=      5-min Rain = 0
KPT1 031430Z 19008KT 28/17 A3007 RMK A01 T02780168  RH  054%=      5-min Rain = 0
KPT1 031435Z 18009G14KT 28/17 A3008 RMK A01 T02800168  RH  053%=      5-min Rain = 0
KPT1 031440Z 18008KT 28/17 A3008 RMK A01 T02810170  RH  053%=      5-min Rain = 0
KPT1 031445Z 18008G14KT 28/17 A3008 RMK A01 T02830169  RH  053%=      5-min Rain = 0
KPT1 031450Z 19008KT 28/17 A3008 RMK A01 T02820169  RH  053%=      5-min Rain = 0
KPT1 031455Z 18008KT 28/17 A3008 RMK A01 T02840169  RH  052%=      5-min Rain = 0
KPT1 031500Z 19008KT 29/17 A3008 RMK A01 T02850169  RH  052%=      5-min Rain = 0
KPT1 031505Z 19007KT 29/17 A3008 RMK A01 T02850168  RH  052%=      5-min Rain = 0
KPT1 031510Z 19006KT 29/17 A3009 RMK A01 T02880170  RH  051%=      5-min Rain = 0
KPT1 031515Z 17007KT 29/17 A3009 RMK A01 T02940171  RH  050%=      5-min Rain = 0
KPT1 031520Z 18007KT 29/17 A3009 RMK A01 T02920169  RH  050%=      5-min Rain = 0
KPT1 031525Z 18006KT 29/17 A3009 RMK A01 T02930171  RH  050%=      5-min Rain = 0
KPT1 031530Z 17007KT 30/17 A3009 RMK A01 T02960169  RH  049%=      5-min Rain = 0
KPT1 031535Z 18005G10KT 30/17 A3009 RMK A01 T02970171  RH  049%=      5-min Rain = 0
KPT1 031540Z 18006KT 30/17 A3009 RMK A01 T02970170  RH  049%=      5-min Rain = 0
KPT1 031545Z 18007KT 30/17 A3008 RMK A01 T02990170  RH  048%=      5-min Rain = 0
KPT1 031550Z 16007KT 30/17 A3008 RMK A01 T03000170  RH  048%=      5-min Rain = 0
KPT1 031555Z 17007KT 30/17 A3008 RMK A01 T03020172  RH  048%=      5-min Rain = 0
KPT1 031600Z 17007KT 31/17 A3008 RMK A01 T03070172  RH  047%=      5-min Rain = 0
KPT1 031605Z 17006KT 31/17 A3008 RMK A01 T03070172  RH  047%=      5-min Rain = 0
KPT1 031610Z 19006KT 31/17 A3008 RMK A01 T03060172  RH  047%=      5-min Rain = 0
KPT1 031615Z 18004KT 31/17 A3008 RMK A01 T03060173  RH  047%=      5-min Rain = 0
KPT1 031620Z 19006KT 31/17 A3009 RMK A01 T03120173  RH  046%=      5-min Rain = 0
KPT1 031625Z 18005KT 31/17 A3008 RMK A01 T03100171  RH  045%=      5-min Rain = 0
KPT1 031630Z 16005KT 32/17 A3008 RMK A01 T03160170  RH  044%=      5-min Rain = 0
KPT1 031635Z 15007KT 32/17 A3008 RMK A01 T03150169  RH  044%=      5-min Rain = 0
KPT1 031640Z 16003KT 32/17 A3008 RMK A01 T03160166  RH  043%=      5-min Rain = 0
KPT1 031645Z 17006KT 32/17 A3008 RMK A01 T03180168  RH  043%=      5-min Rain = 0
KPT1 031650Z 17005KT 32/17 A3008 RMK A01 T03180168  RH  043%=      5-min Rain = 0
KPT1 031655Z 15005KT 32/17 A3008 RMK A01 T03200168  RH  042%=      5-min Rain = 0
KPT1 031700Z 18004G9KT 32/17 A3008 RMK A01 T03220166  RH  041%=      5-min Rain = 0
KPT1 031705Z 14004G9KT 32/17 A3008 RMK A01 T03230165  RH  041%=      5-min Rain = 0
KPT1 031710Z 13003G9KT 33/16 A3008 RMK A01 T03280163  RH  039%=      5-min Rain = 0
KPT1 031715Z 15006G11KT 33/16 A3008 RMK A01 T03280164  RH  039%=      5-min Rain = 0
KPT1 031720Z 16006KT 32/16 A3008 RMK A01 T03240163  RH  040%=      5-min Rain = 0
KPT1 031725Z 14007KT 33/16 A3008 RMK A01 T03300156  RH  037%=      5-min Rain = 0
KPT1 031730Z 13007G12KT 33/16 A3008 RMK A01 T03310157  RH  037%=      5-min Rain = 0
KPT1 031735Z 15008G14KT 34/15 A3008 RMK A01 T03350153  RH  035%=      5-min Rain = 0
KPT1 031740Z 15006KT 33/15 A3008 RMK A01 T03320153  RH  036%=      5-min Rain = 0
KPT1 031745Z 16009G14KT 33/15 A3008 RMK A01 T03340147  RH  034%=      5-min Rain = 0
KPT1 031750Z 18006G11KT 34/15 A3007 RMK A01 T03360149  RH  034%=      5-min Rain = 0
KPT1 031755Z 16007KT 34/15 A3007 RMK A01 T03390151  RH  034%=      5-min Rain = 0
KPT1 031800Z 16006G13KT 34/15 A3007 RMK A01 T03370150  RH  034%=      5-min Rain = 0
KPT1 031805Z 16009KT 34/14 A3007 RMK A01 T03390136  RH  031%=      5-min Rain = 0
KPT1 031810Z 14006KT 34/13 A3007 RMK A01 T03390133  RH  030%=      5-min Rain = 0
KPT1 031815Z 19007KT 34/15 A3007 RMK A01 T03400146  RH  033%=      5-min Rain = 0
KPT1 031820Z 16010G16KT 34/14 A3007 RMK A01 T03410136  RH  030%=      5-min Rain = 0
KPT1 031825Z 13006G13KT 34/14 A3007 RMK A01 T03430136  RH  030%=      5-min Rain = 0
KPT1 031830Z 13007KT 35/14 A3006 RMK A01 T03460135  RH  029%=      5-min Rain = 0
KPT1 031835Z 13006G12KT 35/13 A3006 RMK A01 T03470131  RH  029%=      5-min Rain = 0
KPT1 031840Z 14010KT 35/12 A3006 RMK A01 T03470120  RH  026%=      5-min Rain = 0
KPT1 031845Z 14007G12KT 35/12 A3006 RMK A01 T03470118  RH  026%=      5-min Rain = 0
KPT1 031850Z 11008KT 35/12 A3005 RMK A01 T03480116  RH  025%=      5-min Rain = 0
KPT1 031855Z 13006KT 35/12 A3005 RMK A01 T03510119  RH  026%=      5-min Rain = 0
KPT1 031900Z 16007G12KT 35/12 A3005 RMK A01 T03530120  RH  025%=      5-min Rain = 0
KPT1 031905Z 16007G13KT 35/13 A3005 RMK A01 T03500126  RH  027%=      5-min Rain = 0
KPT1 031910Z 15006KT 35/12 A3005 RMK A01 T03470119  RH  026%=      5-min Rain = 0
KPT1 031915Z 16006G11KT 35/12 A3005 RMK A01 T03530117  RH  025%=      5-min Rain = 0
KPT1 031920Z 15006G11KT 36/12 A3004 RMK A01 T03570116  RH  024%=      5-min Rain = 0
KPT1 031925Z 13005G10KT 35/11 A3004 RMK A01 T03540113  RH  024%=      5-min Rain = 0
KPT1 031930Z 15009KT 36/11 A3004 RMK A01 T03550114  RH  024%=      5-min Rain = 0
KPT1 031935Z 14008G13KT 36/12 A3004 RMK A01 T03580120  RH  025%=      5-min Rain = 0
KPT1 031940Z 12006KT 36/12 A3004 RMK A01 T03570115  RH  024%=      5-min Rain = 0
KPT1 031945Z 14009G17KT 36/11 A3003 RMK A01 T03550111  RH  024%=      5-min Rain = 0
KPT1 031950Z 14011KT 36/11 A3003 RMK A01 T03550109  RH  023%=      5-min Rain = 0
KPT1 031955Z 14005G10KT 36/11 A3003 RMK A01 T03580108  RH  023%=      5-min Rain = 0
KPT1 032000Z 12009G14KT 36/10 A3003 RMK A01 T03560103  RH  022%=      5-min Rain = 0
KPT1 032005Z 14008G13KT 36/10 A3003 RMK A01 T03590097  RH  021%=      5-min Rain = 0
KPT1 032010Z 14008G13KT 36/11 A3003 RMK A01 T03620109  RH  022%=      5-min Rain = 0
KPT1 032015Z 12006G11KT 36/11 A3003 RMK A01 T03590105  RH  022%=      5-min Rain = 0
KPT1 032020Z 17008G14KT 36/11 A3002 RMK A01 T03600106  RH  022%=      5-min Rain = 0
KPT1 032025Z 15009G16KT 36/10 A3002 RMK A01 T03580101  RH  022%=      5-min Rain = 0
KPT1 032030Z 12008G13KT 36/10 A3002 RMK A01 T03580102  RH  022%=      5-min Rain = 0
KPT1 032035Z 12008KT 36/10 A3002 RMK A01 T03600104  RH  022%=      5-min Rain = 0
KPT1 032040Z 17008KT 37/10 A3002 RMK A01 T03650100  RH  021%=      5-min Rain = 0
KPT1 032045Z 16006KT 36/10 A3002 RMK A01 T03620104  RH  022%=      5-min Rain = 0
KPT1 032050Z 15007G14KT 37/11 A3001 RMK A01 T03660114  RH  023%=      5-min Rain = 0
KPT1 032055Z 16010KT 36/11 A3001 RMK A01 T03620111  RH  023%=      5-min Rain = 0
KPT1 032100Z 16006KT 36/11 A3001 RMK A01 T03620112  RH  023%=      5-min Rain = 0
KPT1 032105Z 19005KT 36/11 A3001 RMK A01 T03630111  RH  023%=      5-min Rain = 0
KPT1 032110Z 13005KT 37/11 A3001 RMK A01 T03650113  RH  023%=      5-min Rain = 0
KPT1 032115Z 15007G14KT 37/11 A3001 RMK A01 T03680113  RH  022%=      5-min Rain = 0
KPT1 032120Z 13011G17KT 37/11 A3001 RMK A01 T03650106  RH  022%=      5-min Rain = 0
KPT1 032125Z 15007G13KT 36/10 A30 RMK A01 T03630103  RH  021%=      5-min Rain = 0
KPT1 032130Z 14006G13KT 37/10 A30 RMK A01 T03660104  RH  021%=      5-min Rain = 0
KPT1 032135Z 14008KT 36/10 A30 RMK A01 T03630101  RH  021%=      5-min Rain = 0
KPT1 032140Z 13006KT 37/10 A30 RMK A01 T03650102  RH  021%=      5-min Rain = 0
KPT1 032145Z 13007KT 37/11 A30 RMK A01 T03670105  RH  021%=      5-min Rain = 0
KPT1 032150Z 14008KT 37/11 A30 RMK A01 T03690107  RH  021%=      5-min Rain = 0
KPT1 032155Z 15009KT 37/11 A30 RMK A01 T03660105  RH  021%=      5-min Rain = 0
KPT1 032200Z 17005G10KT 37/11 A2999 RMK A01 T03650105  RH  021%=      5-min Rain = 0
KPT1 032205Z 12008KT 37/10 A2999 RMK A01 T03670103  RH  021%=      5-min Rain = 0
KPT1 032210Z 13005G14KT 36/10 A2999 RMK A01 T03560097  RH  021%=      5-min Rain = 0
KPT1 032215Z 14007KT 37/10 A2999 RMK A01 T03650102  RH  021%=      5-min Rain = 0
KPT1 032220Z 13007KT 36/10 A2999 RMK A01 T03570099  RH  022%=      5-min Rain = 0
KPT1 032225Z 13006KT 35/10 A2999 RMK A01 T03500099  RH  022%=      5-min Rain = 0
KPT1 032230Z 15005KT 35/10 A2999 RMK A01 T03490098  RH  022%=      5-min Rain = 0
KPT1 032235Z 18004KT 36/10 A2998 RMK A01 T03580099  RH  021%=      5-min Rain = 0
KPT1 032240Z 16006G12KT 36/10 A2998 RMK A01 T03640100  RH  021%=      5-min Rain = 0
KPT1 032245Z 11007G12KT 36/10 A2998 RMK A01 T03630098  RH  021%=      5-min Rain = 0
KPT1 032250Z 11008KT 36/10 A2998 RMK A01 T03630098  RH  021%=      5-min Rain = 0
KPT1 032255Z 09007KT 36/10 A2998 RMK A01 T03630099  RH  021%=      5-min Rain = 0
KPT1 032300Z 11006G11KT 36/10 A2997 RMK A01 T03630100  RH  021%=      5-min Rain = 0
KPT1 032305Z 13007KT 36/10 A2997 RMK A01 T03620100  RH  021%=      5-min Rain = 0
KPT1 032310Z 12005KT 36/10 A2997 RMK A01 T03630102  RH  021%=      5-min Rain = 0
KPT1 032315Z 12007G12KT 36/10 A2997 RMK A01 T03620098  RH  021%=      5-min Rain = 0
KPT1 032320Z 13009KT 36/10 A2997 RMK A01 T03620100  RH  021%=      5-min Rain = 0
KPT1 032325Z 14006G11KT 36/10 A2997 RMK A01 T03600100  RH  021%=      5-min Rain = 0
KPT1 032330Z 15005KT 35/10 A2997 RMK A01 T03510101  RH  023%=      5-min Rain = 0
KPT1 032335Z 15007KT 35/10 A2997 RMK A01 T03500097  RH  022%=      5-min Rain = 0
KPT1 032340Z 13006KT 36/09 A2997 RMK A01 T03580090  RH  020%=      5-min Rain = 0
KPT1 032345Z 15006G11KT 36/10 A2996 RMK A01 T03600096  RH  021%=      5-min Rain = 0
KPT1 032350Z 16004KT 36/10 A2996 RMK A01 T03590096  RH  021%=      5-min Rain = 0
KPT1 032355Z 17004KT 36/10 A2996 RMK A01 T03570100  RH  022%=      5-min Rain = 0
KPT1 040000Z 16006KT 36/10 A2996 RMK A01 T03570099  RH  021%=      5-min Rain = 0
KPT1 040005Z 16007KT 36/10 A2996 RMK A01 T03560103  RH  022%=      5-min Rain = 0
KPT1 040010Z 14005KT 36/10 A2996 RMK A01 T03570104  RH  022%=      5-min Rain = 0
KPT1 040015Z 15005KT 36/10 A2997 RMK A01 T03560103  RH  022%=      5-min Rain = 0
KPT1 040020Z 16005KT 35/10 A2997 RMK A01 T03530103  RH  023%=      5-min Rain = 0
KPT1 040025Z 13008KT 35/10 A2997 RMK A01 T03510103  RH  023%=      5-min Rain = 0
KPT1 040030Z 13008KT 35/11 A2997 RMK A01 T03470110  RH  025%=      5-min Rain = 0
KPT1 040035Z 12008KT 35/11 A2997 RMK A01 T03450111  RH  025%=      5-min Rain = 0
KPT1 040040Z 13007KT 34/11 A2997 RMK A01 T03440114  RH  026%=      5-min Rain = 0
KPT1 040045Z 13008KT 34/11 A2997 RMK A01 T03410112  RH  026%=      5-min Rain = 0
KPT1 040050Z 12008KT 34/11 A2997 RMK A01 T03400109  RH  025%=      5-min Rain = 0
KPT1 040055Z 12008KT 34/11 A2997 RMK A01 T03390108  RH  025%=      5-min Rain = 0
KPT1 040100Z 12007KT 34/11 A2997 RMK A01 T03380110  RH  026%=      5-min Rain = 0
KPT1 040105Z 12006KT 34/11 A2997 RMK A01 T03370111  RH  026%=      5-min Rain = 0
KPT1 040110Z 13006KT 34/11 A2998 RMK A01 T03360114  RH  027%=      5-min Rain = 0
KPT1 040115Z 13006KT 33/11 A2997 RMK A01 T03340114  RH  027%=      5-min Rain = 0
KPT1 040120Z 13005KT 33/12 A2997 RMK A01 T03310119  RH  029%=      5-min Rain = 0
KPT1 040125Z 13006KT 33/12 A2998 RMK A01 T03290118  RH  029%=      5-min Rain = 0
KPT1 040130Z 13005KT 33/12 A2998 RMK A01 T03270119  RH  029%=      5-min Rain = 0
KPT1 040135Z 12005KT 33/12 A2998 RMK A01 T03260117  RH  029%=      5-min Rain = 0
KPT1 040140Z 12005KT 32/12 A2998 RMK A01 T03240117  RH  029%=      5-min Rain = 0
KPT1 040145Z 12006KT 32/12 A2998 RMK A01 T03230115  RH  029%=      5-min Rain = 0
KPT1 040150Z 12007KT 32/11 A2998 RMK A01 T03220114  RH  029%=      5-min Rain = 0
KPT1 040155Z 11007KT 32/11 A2998 RMK A01 T03220112  RH  029%=      5-min Rain = 0
KPT1 040200Z 11007KT 32/11 A2999 RMK A01 T03230111  RH  028%=      5-min Rain = 0
KPT1 040205Z 11007KT 32/11 A2999 RMK A01 T03220111  RH  029%=      5-min Rain = 0
KPT1 040210Z 11006KT 32/11 A2999 RMK A01 T03190112  RH  029%=      5-min Rain = 0
KPT1 040215Z 11006KT 32/11 A2999 RMK A01 T03160112  RH  030%=      5-min Rain = 0
KPT1 040220Z 11006KT 32/11 A30 RMK A01 T03150113  RH  030%=      5-min Rain = 0
KPT1 040225Z 11005KT 31/11 A30 RMK A01 T03120113  RH  031%=      5-min Rain = 0
KPT1 040230Z 11005KT 31/11 A30 RMK A01 T03100114  RH  031%=      5-min Rain = 0
KPT1 040235Z 11005KT 31/11 A30 RMK A01 T03080114  RH  031%=      5-min Rain = 0
KPT1 040240Z 12005KT 31/11 A3001 RMK A01 T03060114  RH  032%=      5-min Rain = 0
KPT1 040245Z 12006KT 30/11 A3001 RMK A01 T03040114  RH  032%=      5-min Rain = 0
KPT1 040250Z 11006KT 30/12 A3001 RMK A01 T03040115  RH  032%=      5-min Rain = 0
KPT1 040255Z 11006KT 31/12 A3001 RMK A01 T03050115  RH  032%=      5-min Rain = 0
KPT1 040300Z 11006KT 30/12 A3001 RMK A01 T03040115  RH  032%=      5-min Rain = 0
KPT1 040305Z 11006KT 30/12 A3001 RMK A01 T03020115  RH  033%=      5-min Rain = 0
KPT1 040310Z 11007KT 30/12 A3002 RMK A01 T03020116  RH  033%=      5-min Rain = 0
KPT1 040315Z 11007KT 30/12 A3002 RMK A01 T03020117  RH  033%=      5-min Rain = 0
KPT1 040320Z 11007KT 30/12 A3002 RMK A01 T03010117  RH  033%=      5-min Rain = 0
KPT1 040325Z 11007KT 30/12 A3002 RMK A01 T03010117  RH  033%=      5-min Rain = 0
KPT1 040330Z 11006KT 30/12 A3003 RMK A01 T03000118  RH  034%=      5-min Rain = 0
KPT1 040335Z 11005KT 30/12 A3003 RMK A01 T02980118  RH  034%=      5-min Rain = 0
KPT1 040340Z 12005KT 29/12 A3003 RMK A01 T02940119  RH  035%=      5-min Rain = 0
KPT1 040345Z 12005KT 29/12 A3004 RMK A01 T02930119  RH  036%=      5-min Rain = 0
KPT1 040350Z 13005KT 29/12 A3004 RMK A01 T02900121  RH  037%=      5-min Rain = 0
KPT1 040355Z 14005KT 29/12 A3004 RMK A01 T02870122  RH  038%=      5-min Rain = 0
KPT1 040400Z 14005KT 28/12 A3004 RMK A01 T02840123  RH  038%=      5-min Rain = 0
KPT1 040405Z 14005KT 29/12 A3004 RMK A01 T02850122  RH  038%=      5-min Rain = 0
KPT1 040410Z 14005KT 29/12 A3004 RMK A01 T02850122  RH  038%=      5-min Rain = 0
KPT1 040415Z 15005KT 28/12 A3004 RMK A01 T02820122  RH  039%=      5-min Rain = 0
KPT1 040420Z 15005KT 28/12 A3004 RMK A01 T02800122  RH  039%=      5-min Rain = 0
KPT1 040425Z 15005KT 28/12 A3004 RMK A01 T02800122  RH  039%=      5-min Rain = 0
KPT1 040430Z 16004KT 28/12 A3004 RMK A01 T02790121  RH  039%=      5-min Rain = 0
KPT1 040435Z 17004KT 28/12 A3004 RMK A01 T02780120  RH  039%=      5-min Rain = 0
KPT1 040440Z 16003KT 28/12 A3004 RMK A01 T02790118  RH  038%=      5-min Rain = 0
KPT1 040445Z 16003KT 28/12 A3004 RMK A01 T02810116  RH  037%=      5-min Rain = 0
KPT1 040450Z 17003KT 28/12 A3004 RMK A01 T02810116  RH  037%=      5-min Rain = 0
KPT1 040455Z 16002KT 28/12 A3004 RMK A01 T02810115  RH  037%=      5-min Rain = 0

Page generated in 0.0155 seconds.